Time;durP1;ratioP1;P1;durP2;ratioP2;P2;SDS_P1;SDS_P2;PMS_P1;PMS_P2;Temp;Humidity;BMP_temperature;BMP_pressure;BME280_temperature;BME280_humidity;BME280_pressure;Samples;Min_cycle;Max_cycle;Signal;HPM_P1;HPM_P2
2022/10/18 00:01:25;;;;;;;6.22;4.15;;;15.80;99.90;;;;;;5083961;28;20035;-66
2022/10/18 00:03:51;;;;;;;6.88;4.10;;;15.70;99.90;;;;;;5084371;28;20044;-66
2022/10/18 00:06:16;;;;;;;6.10;4.50;;;15.80;99.90;;;;;;5082452;28;20063;-66
2022/10/18 00:08:42;;;;;;;5.57;3.80;;;15.90;99.90;;;;;;5082182;28;20160;-66
2022/10/18 00:11:07;;;;;;;6.30;3.67;;;15.80;99.90;;;;;;5083226;28;20050;-67
2022/10/18 00:13:33;;;;;;;6.03;3.90;;;15.80;99.90;;;;;;5081948;28;20052;-66
2022/10/18 00:16:03;;;;;;;8.63;4.30;;;15.80;99.90;;;;;;5082811;28;20494;-66
2022/10/18 00:18:28;;;;;;;6.45;4.18;;;15.80;99.90;;;;;;5082246;28;20483;-66
2022/10/18 00:21:03;;;;;;;5.40;3.78;;;15.70;99.90;;;;;;5083238;28;20048;-66
2022/10/18 00:23:30;;;;;;;6.38;3.85;;;15.80;99.90;;;;;;5083069;28;20059;-66
2022/10/18 00:26:23;;;;;;;5.70;3.92;;;15.70;99.90;;;;;;5064970;28;20032;-66
2022/10/18 00:28:51;;;;;;;5.72;3.95;;;15.80;99.90;;;;;;5080882;28;20043;-66
2022/10/18 00:31:24;;;;;;;7.18;4.07;;;15.70;99.90;;;;;;5082783;28;20032;-66
2022/10/18 00:33:53;;;;;;;5.68;4.13;;;15.70;99.90;;;;;;5082749;28;20040;-66
2022/10/18 00:36:20;;;;;;;6.32;3.75;;;15.70;99.90;;;;;;5082903;28;20112;-66
2022/10/18 00:38:46;;;;;;;5.72;4.35;;;15.70;99.90;;;;;;5082622;28;20435;-66
2022/10/18 00:41:14;;;;;;;8.60;4.97;;;15.70;99.90;;;;;;5082234;28;20139;-66
2022/10/18 00:44:00;;;;;;;8.57;4.70;;;15.70;99.90;;;;;;5082243;28;20040;-66
2022/10/18 00:46:34;;;;;;;6.00;4.47;;;15.70;99.90;;;;;;5083102;28;20131;-66
2022/10/18 00:49:03;;;;;;;8.82;4.40;;;15.70;99.90;;;;;;5083174;28;20570;-66
2022/10/18 00:51:40;;;;;;;8.95;5.10;;;15.70;99.90;;;;;;5081423;28;20039;-67
2022/10/18 00:54:05;;;;;;;10.40;5.22;;;15.70;99.90;;;;;;5080668;28;20808;-66
2022/10/18 00:56:32;;;;;;;9.05;5.65;;;15.60;99.90;;;;;;5083563;28;20028;-66
2022/10/18 00:58:58;;;;;;;9.40;5.05;;;15.60;99.90;;;;;;5082386;28;20039;-66
2022/10/18 01:01:23;;;;;;;11.90;5.47;;;15.60;99.90;;;;;;5076276;28;20093;-66
2022/10/18 01:03:51;;;;;;;8.07;4.80;;;15.60;99.90;;;;;;5082627;28;20435;-67
2022/10/18 01:06:16;;;;;;;7.90;4.93;;;15.60;99.90;;;;;;5081324;28;20031;-67
2022/10/18 01:08:50;;;;;;;9.77;5.20;;;15.60;99.90;;;;;;5082926;28;20088;-66
2022/10/18 01:11:39;;;;;;;11.43;5.15;;;15.60;99.90;;;;;;5079992;28;20043;-66
2022/10/18 01:14:27;;;;;;;11.50;4.97;;;15.60;99.90;;;;;;5080703;28;21126;-66
2022/10/18 01:17:21;;;;;;;9.13;5.15;;;15.60;99.90;;;;;;5066268;28;20823;-66
2022/10/18 01:20:12;;;;;;;9.80;5.45;;;15.60;99.90;;;;;;5082318;28;20051;-66
2022/10/18 01:22:43;;;;;;;11.48;5.13;;;15.60;99.90;;;;;;5082747;28;20112;-67
2022/10/18 01:25:28;;;;;;;8.23;5.30;;;15.60;99.90;;;;;;5081445;28;20096;-67
2022/10/18 01:28:19;;;;;;;6.55;4.88;;;15.60;99.90;;;;;;5081674;28;20139;-67
2022/10/18 01:30:58;;;;;;;8.57;4.95;;;15.70;99.90;;;;;;5079861;28;20050;-66
2022/10/18 01:33:36;;;;;;;7.97;5.28;;;15.70;99.90;;;;;;5083853;28;20460;-66
2022/10/18 01:36:12;;;;;;;9.07;5.22;;;15.70;99.90;;;;;;5081714;28;20040;-66
2022/10/18 01:38:39;;;;;;;9.70;5.20;;;15.60;99.90;;;;;;5081920;28;20024;-67
2022/10/18 01:41:06;;;;;;;9.82;5.28;;;15.70;99.90;;;;;;5075775;28;20025;-66
2022/10/18 01:43:34;;;;;;;8.68;5.63;;;15.70;99.90;;;;;;5080332;28;20119;-66
2022/10/18 01:46:00;;;;;;;8.88;5.38;;;15.70;99.90;;;;;;5080759;28;20024;-66
2022/10/18 01:48:26;;;;;;;8.05;5.15;;;15.60;99.90;;;;;;5084325;28;20206;-67
2022/10/18 01:50:53;;;;;;;8.50;5.18;;;15.70;99.90;;;;;;5082647;28;20487;-66
2022/10/18 01:53:23;;;;;;;9.65;6.20;;;15.60;99.90;;;;;;5082146;28;20039;-66
2022/10/18 01:56:00;;;;;;;8.10;5.00;;;15.60;99.90;;;;;;5081154;28;20032;-67
2022/10/18 01:58:38;;;;;;;9.13;5.50;;;15.60;99.90;;;;;;5064124;28;20032;-66
2022/10/18 02:01:10;;;;;;;12.10;5.35;;;15.60;99.90;;;;;;5068341;28;20044;-66
2022/10/18 02:03:42;;;;;;;10.13;5.28;;;15.70;99.90;;;;;;5078458;28;20028;-66
2022/10/18 02:06:19;;;;;;;7.57;5.00;;;15.70;99.90;;;;;;5079254;28;20070;-66
2022/10/18 02:08:58;;;;;;;8.65;5.30;;;15.70;99.90;;;;;;5080208;28;20107;-66
2022/10/18 02:11:25;;;;;;;9.75;5.07;;;15.60;99.90;;;;;;5076017;28;20055;-66
2022/10/18 02:14:02;;;;;;;7.60;4.35;;;15.60;99.90;;;;;;5059363;28;20048;-67
2022/10/18 02:16:44;;;;;;;7.95;4.90;;;15.70;99.90;;;;;;5078846;28;20039;-66
2022/10/18 02:19:17;;;;;;;8.40;5.10;;;15.70;99.90;;;;;;5080700;28;20079;-67
2022/10/18 02:21:45;;;;;;;5.75;4.60;;;15.70;99.90;;;;;;5083002;28;20123;-66
2022/10/18 02:24:13;;;;;;;8.85;4.90;;;15.70;99.90;;;;;;5079116;28;20047;-66
2022/10/18 02:26:39;;;;;;;8.65;4.93;;;15.70;99.90;;;;;;5086066;28;20031;-67
2022/10/18 02:29:05;;;;;;;7.15;4.90;;;15.70;99.90;;;;;;5077430;28;20036;-66
2022/10/18 02:31:38;;;;;;;8.10;4.97;;;15.70;99.90;;;;;;5081112;28;20028;-67
2022/10/18 02:34:19;;;;;;;12.73;5.35;;;15.70;99.90;;;;;;5079849;28;20047;-67
2022/10/18 02:36:49;;;;;;;8.35;5.32;;;15.70;99.90;;;;;;5078631;28;20459;-66
2022/10/18 02:39:32;;;;;;;13.32;5.68;;;15.80;99.90;;;;;;5079239;28;20039;-67
2022/10/18 02:41:58;;;;;;;8.52;6.10;;;15.80;99.90;;;;;;5080961;28;20040;-66
2022/10/18 02:44:24;;;;;;;8.18;5.57;;;15.70;99.90;;;;;;5076528;28;20047;-67
2022/10/18 02:46:50;;;;;;;8.23;5.50;;;15.70;99.90;;;;;;5064318;28;20039;-67
2022/10/18 02:49:15;;;;;;;12.73;6.30;;;15.80;99.90;;;;;;5052585;28;20151;-66
2022/10/18 02:51:41;;;;;;;10.48;5.72;;;15.70;99.90;;;;;;5054255;28;20528;-66
2022/10/18 02:54:07;;;;;;;8.38;6.13;;;15.70;99.90;;;;;;5060296;28;21189;-67
2022/10/18 02:56:33;;;;;;;11.85;6.22;;;15.80;99.90;;;;;;5057777;28;20558;-67
2022/10/18 02:58:59;;;;;;;10.10;6.70;;;15.90;99.90;;;;;;5061015;28;20059;-67
2022/10/18 03:01:25;;;;;;;12.43;7.97;;;15.80;99.90;;;;;;5054906;28;20683;-67
2022/10/18 03:03:50;;;;;;;11.10;7.20;;;15.70;99.90;;;;;;5059602;28;20064;-67
2022/10/18 03:06:16;;;;;;;13.80;8.45;;;15.70;99.90;;;;;;5063370;28;20032;-66
2022/10/18 03:08:41;;;;;;;10.85;7.75;;;15.80;99.90;;;;;;5060752;28;20094;-66
2022/10/18 03:11:07;;;;;;;10.82;8.30;;;15.90;99.90;;;;;;5057591;28;20086;-67
2022/10/18 03:13:32;;;;;;;13.52;8.68;;;15.80;99.90;;;;;;5061400;28;20044;-67
2022/10/18 03:15:58;;;;;;;14.80;9.30;;;15.90;99.90;;;;;;5064021;28;20040;-67
2022/10/18 03:18:24;;;;;;;12.43;8.95;;;15.80;99.90;;;;;;5061559;28;20040;-66
2022/10/18 03:20:50;;;;;;;12.77;8.60;;;15.90;99.90;;;;;;5067662;28;20140;-67
2022/10/18 03:23:15;;;;;;;11.18;7.82;;;15.80;99.90;;;;;;5062972;28;20086;-67
2022/10/18 03:25:41;;;;;;;10.82;7.85;;;15.70;99.90;;;;;;5065924;28;20035;-67
2022/10/18 03:28:07;;;;;;;11.63;8.73;;;15.80;99.90;;;;;;5064619;28;20061;-66
2022/10/18 03:30:33;;;;;;;11.60;8.13;;;15.80;99.90;;;;;;5060310;28;20056;-66
2022/10/18 03:32:58;;;;;;;14.15;8.98;;;15.70;99.90;;;;;;5064232;28;20062;-67
2022/10/18 03:35:24;;;;;;;13.45;8.48;;;15.80;99.90;;;;;;5061196;28;20033;-67
2022/10/18 03:37:50;;;;;;;11.95;8.45;;;15.80;99.90;;;;;;5063103;28;20037;-66
2022/10/18 03:40:15;;;;;;;10.65;8.10;;;15.80;99.90;;;;;;5062597;28;20028;-66
2022/10/18 03:42:41;;;;;;;14.80;9.02;;;15.80;99.90;;;;;;5064347;28;20032;-67
2022/10/18 03:45:07;;;;;;;12.75;9.80;;;15.70;99.90;;;;;;5059260;28;20123;-67
2022/10/18 03:47:33;;;;;;;12.60;9.02;;;15.90;99.90;;;;;;5060961;28;20064;-66
2022/10/18 03:49:58;;;;;;;10.93;8.75;;;15.90;99.90;;;;;;5060603;28;20029;-67
2022/10/18 03:52:24;;;;;;;13.95;8.82;;;15.90;99.90;;;;;;5063621;28;20028;-67
2022/10/18 03:54:49;;;;;;;14.25;9.48;;;15.80;99.90;;;;;;5061500;28;20057;-66
2022/10/18 03:57:15;;;;;;;13.98;9.30;;;15.80;99.90;;;;;;5065060;28;20834;-67
2022/10/18 03:59:41;;;;;;;13.02;9.77;;;15.80;99.90;;;;;;5066551;28;20077;-66
2022/10/18 04:02:06;;;;;;;14.07;9.05;;;15.70;99.90;;;;;;5062570;28;20669;-66
2022/10/18 04:04:32;;;;;;;11.63;8.65;;;15.80;99.90;;;;;;5059727;28;20047;-66
2022/10/18 04:06:57;;;;;;;11.98;8.77;;;15.70;99.90;;;;;;5065590;28;20711;-66
2022/10/18 04:09:23;;;;;;;12.32;8.32;;;15.80;99.90;;;;;;5060968;28;20683;-66
2022/10/18 04:11:50;;;;;;;15.02;9.68;;;15.80;99.90;;;;;;5064620;28;20466;-67
2022/10/18 04:14:15;;;;;;;13.05;9.15;;;15.80;99.90;;;;;;5059059;28;20585;-67
2022/10/18 04:16:41;;;;;;;12.93;8.90;;;15.80;99.90;;;;;;5065169;28;20033;-67
2022/10/18 04:19:07;;;;;;;13.73;9.13;;;15.70;99.90;;;;;;5061247;28;20040;-66
2022/10/18 04:21:32;;;;;;;12.10;9.00;;;15.70;99.90;;;;;;5057567;28;20114;-67
2022/10/18 04:23:58;;;;;;;14.93;10.13;;;15.80;99.90;;;;;;5059842;28;20033;-67
2022/10/18 04:26:23;;;;;;;15.18;10.57;;;15.80;99.90;;;;;;5059411;28;20406;-66
2022/10/18 04:28:49;;;;;;;13.13;9.88;;;15.80;99.90;;;;;;5062269;28;20380;-67
2022/10/18 04:31:14;;;;;;;14.23;10.65;;;15.70;99.90;;;;;;5059096;28;20079;-67
2022/10/18 04:33:40;;;;;;;13.23;10.43;;;15.80;99.90;;;;;;5062282;28;20113;-67
2022/10/18 04:36:06;;;;;;;16.20;11.02;;;15.80;99.90;;;;;;5057724;28;20060;-67
2022/10/18 04:38:31;;;;;;;16.63;11.52;;;15.80;99.90;;;;;;5060103;28;20037;-67
2022/10/18 04:40:57;;;;;;;16.95;11.02;;;15.90;99.90;;;;;;5058414;28;20354;-67
2022/10/18 04:43:23;;;;;;;19.60;13.10;;;15.90;99.90;;;;;;5055492;28;20648;-67
2022/10/18 04:45:49;;;;;;;19.90;14.43;;;15.90;99.90;;;;;;5057584;28;20025;-67
2022/10/18 04:48:16;;;;;;;20.08;14.63;;;16.00;99.90;;;;;;5061259;28;20036;-67
2022/10/18 04:50:42;;;;;;;16.63;12.35;;;15.90;99.90;;;;;;5059631;28;20029;-67
2022/10/18 04:53:07;;;;;;;18.02;13.63;;;15.90;99.90;;;;;;5061216;28;20359;-66
2022/10/18 04:55:33;;;;;;;18.67;13.20;;;15.90;99.90;;;;;;5061884;28;20439;-66
2022/10/18 04:57:58;;;;;;;25.20;16.88;;;15.90;99.90;;;;;;5060288;28;20496;-66
2022/10/18 05:00:24;;;;;;;20.98;15.68;;;16.00;99.90;;;;;;5061024;28;20525;-67
2022/10/18 05:02:56;;;;;;;22.40;16.75;;;16.00;99.90;;;;;;5059073;28;20036;-67
2022/10/18 05:05:21;;;;;;;20.88;15.18;;;16.00;99.90;;;;;;5051328;28;20163;-66
2022/10/18 05:07:47;;;;;;;22.02;15.07;;;15.90;99.90;;;;;;5056728;28;20093;-67
2022/10/18 05:10:12;;;;;;;20.90;15.48;;;15.90;99.90;;;;;;5058516;28;20819;-67
2022/10/18 05:12:38;;;;;;;26.67;18.55;;;15.80;99.90;;;;;;5054928;28;20420;-66
2022/10/18 05:15:04;;;;;;;23.30;17.48;;;15.90;99.90;;;;;;5053835;28;20059;-67
2022/10/18 05:17:30;;;;;;;21.70;16.25;;;15.80;99.90;;;;;;5054561;28;20122;-66
2022/10/18 05:19:55;;;;;;;23.77;17.25;;;15.70;99.90;;;;;;5060579;28;20047;-66
2022/10/18 05:22:21;;;;;;;27.05;17.88;;;15.70;99.90;;;;;;5057228;28;20204;-67
2022/10/18 05:24:46;;;;;;;18.30;15.77;;;15.70;99.90;;;;;;5059630;28;20394;-67
2022/10/18 05:27:12;;;;;;;21.35;16.20;;;15.80;99.90;;;;;;5053844;28;20445;-67
2022/10/18 05:29:37;;;;;;;20.10;16.73;;;15.70;99.90;;;;;;5058873;28;20041;-67
2022/10/18 05:32:03;;;;;;;19.33;16.15;;;15.60;99.90;;;;;;5057887;28;20131;-67
2022/10/18 05:34:30;;;;;;;17.55;14.60;;;15.60;99.90;;;;;;5056089;28;20051;-67
2022/10/18 05:36:57;;;;;;;24.48;17.13;;;15.70;99.90;;;;;;5058350;28;20055;-67
2022/10/18 05:39:22;;;;;;;19.65;15.68;;;15.70;99.90;;;;;;5056295;28;20033;-67
2022/10/18 05:41:48;;;;;;;19.60;15.40;;;15.60;99.90;;;;;;5055653;28;20138;-67
2022/10/18 05:44:14;;;;;;;19.80;15.23;;;15.70;99.90;;;;;;5052527;28;20434;-67
2022/10/18 05:46:39;;;;;;;19.73;15.25;;;15.70;99.90;;;;;;5057020;28;20085;-68
2022/10/18 05:49:05;;;;;;;19.25;15.38;;;15.60;99.90;;;;;;5058472;28;20021;-68
2022/10/18 05:51:31;;;;;;;20.33;15.15;;;15.50;99.90;;;;;;5054081;28;20063;-67
2022/10/18 05:53:57;;;;;;;19.65;15.88;;;15.50;99.90;;;;;;5052972;28;20047;-67
2022/10/18 05:56:23;;;;;;;20.17;16.02;;;15.50;99.90;;;;;;5057580;28;20060;-67
2022/10/18 05:58:50;;;;;;;20.08;15.77;;;15.50;99.90;;;;;;5057253;28;20032;-67
2022/10/18 06:01:16;;;;;;;23.30;16.77;;;15.50;99.90;;;;;;5061387;28;20040;-68
2022/10/18 06:03:41;;;;;;;20.70;16.65;;;15.60;99.90;;;;;;5057502;28;20045;-67
2022/10/18 06:06:10;;;;;;;22.85;17.13;;;15.50;99.90;;;;;;5056119;28;20040;-68
2022/10/18 06:08:36;;;;;;;22.00;17.50;;;15.50;99.90;;;;;;5058526;28;20020;-68
2022/10/18 06:11:18;;;;;;;29.23;19.58;;;15.50;99.90;;;;;;5055171;28;20025;-68
2022/10/18 06:13:49;;;;;;;20.77;16.63;;;15.60;99.90;;;;;;5049761;28;20089;-68
2022/10/18 06:16:16;;;;;;;19.95;15.85;;;15.80;99.90;;;;;;5048339;28;20403;-68
2022/10/18 06:18:42;;;;;;;21.50;16.27;;;15.60;99.90;;;;;;5053435;28;20484;-68
2022/10/18 06:21:08;;;;;;;21.42;17.42;;;15.60;99.90;;;;;;5058820;28;20097;-68
2022/10/18 06:23:34;;;;;;;21.48;17.27;;;15.60;99.90;;;;;;5053625;28;20058;-68
2022/10/18 06:26:03;;;;;;;20.80;17.63;;;15.70;99.90;;;;;;5021382;28;20040;-68
2022/10/18 06:28:29;;;;;;;19.63;16.88;;;15.60;99.90;;;;;;5050542;28;20028;-68
2022/10/18 06:30:55;;;;;;;25.05;18.20;;;15.70;99.90;;;;;;5032065;28;20148;-67
2022/10/18 06:33:21;;;;;;;22.05;17.38;;;15.70;99.90;;;;;;5052372;28;20142;-67
2022/10/18 06:35:57;;;;;;;21.55;18.55;;;15.60;99.90;;;;;;5050521;28;20045;-68
2022/10/18 06:38:23;;;;;;;22.13;17.75;;;15.70;99.90;;;;;;5054546;28;20048;-68
2022/10/18 06:40:49;;;;;;;29.83;20.83;;;15.70;99.90;;;;;;5050528;28;20364;-68
2022/10/18 06:43:15;;;;;;;37.25;22.20;;;15.80;99.90;;;;;;5052686;28;20033;-67
2022/10/18 06:45:40;;;;;;;25.13;19.88;;;15.80;99.90;;;;;;5052881;28;20964;-68
2022/10/18 06:48:06;;;;;;;24.25;20.08;;;15.80;99.90;;;;;;5056439;28;20037;-68
2022/10/18 06:50:32;;;;;;;26.45;20.08;;;15.80;99.90;;;;;;5058512;28;20132;-68
2022/10/18 06:52:57;;;;;;;28.85;21.75;;;15.70;99.90;;;;;;5050359;28;20033;-68
2022/10/18 06:55:23;;;;;;;26.02;19.60;;;15.70;99.90;;;;;;5058252;28;20044;-68
2022/10/18 06:57:48;;;;;;;26.98;20.48;;;15.80;99.90;;;;;;5061553;28;20040;-68
2022/10/18 07:00:14;;;;;;;26.85;20.75;;;15.70;99.90;;;;;;5056963;28;20139;-68
2022/10/18 07:02:40;;;;;;;28.38;21.92;;;15.70;99.90;;;;;;5027550;28;20033;-68
2022/10/18 07:05:09;;;;;;;25.55;21.02;;;16.00;99.90;;;;;;5054509;28;20044;-68
2022/10/18 07:07:35;;;;;;;26.98;20.65;;;15.90;99.90;;;;;;5044386;28;20255;-67
2022/10/18 07:10:01;;;;;;;27.25;21.90;;;15.90;99.90;;;;;;5052434;28;20049;-66
2022/10/18 07:12:27;;;;;;;31.15;22.58;;;15.90;99.90;;;;;;5052254;28;20632;-66
2022/10/18 07:14:53;;;;;;;28.98;21.83;;;16.00;99.90;;;;;;5053375;28;20694;-66
2022/10/18 07:17:19;;;;;;;27.38;21.05;;;16.00;99.90;;;;;;5052989;28;20047;-66
2022/10/18 07:19:44;;;;;;;26.23;20.80;;;16.00;99.90;;;;;;5035949;28;20058;-66
2022/10/18 07:22:10;;;;;;;28.20;22.50;;;16.00;99.90;;;;;;5051852;28;20172;-66
2022/10/18 07:24:36;;;;;;;34.67;25.10;;;16.20;99.90;;;;;;5050898;28;20121;-67
2022/10/18 07:27:01;;;;;;;31.70;24.55;;;16.20;99.90;;;;;;5058209;28;20060;-66
2022/10/18 07:29:27;;;;;;;31.88;23.88;;;16.00;99.90;;;;;;5059733;28;20032;-66
2022/10/18 07:31:52;;;;;;;31.92;24.48;;;16.10;99.90;;;;;;5059291;28;20559;-66
2022/10/18 07:34:18;;;;;;;37.25;26.25;;;16.10;99.90;;;;;;5037890;28;20039;-66
2022/10/18 07:36:43;;;;;;;45.78;28.73;;;16.10;99.90;;;;;;5056855;28;20475;-66
2022/10/18 07:39:09;;;;;;;38.78;26.67;;;16.10;99.90;;;;;;5060743;28;20032;-67
2022/10/18 07:41:35;;;;;;;40.00;28.13;;;16.10;99.90;;;;;;5059421;28;20166;-66
2022/10/18 07:44:01;;;;;;;47.80;30.30;;;16.10;99.90;;;;;;5056291;28;20044;-66
2022/10/18 07:46:27;;;;;;;67.15;34.08;;;16.10;99.90;;;;;;5055547;28;20037;-67
2022/10/18 07:48:53;;;;;;;70.93;38.28;;;16.10;99.90;;;;;;5059277;28;20404;-66
2022/10/18 07:51:19;;;;;;;64.05;35.20;;;15.90;99.90;;;;;;5055711;28;20036;-66
2022/10/18 07:53:45;;;;;;;63.88;37.25;;;15.90;99.90;;;;;;5056144;28;20127;-66
2022/10/18 07:56:19;;;;;;;69.20;38.53;;;16.20;99.90;;;;;;5051558;28;20558;-66
2022/10/18 07:58:52;;;;;;;76.82;40.15;;;15.90;99.90;;;;;;5054872;28;20379;-64
2022/10/18 08:01:18;;;;;;;88.10;49.08;;;15.90;99.90;;;;;;5062110;28;20063;-66
2022/10/18 08:03:44;;;;;;;80.88;41.25;;;16.10;99.90;;;;;;5044774;28;20112;-66
2022/10/18 08:06:13;;;;;;;80.07;39.78;;;16.00;99.90;;;;;;5045523;28;20120;-66
2022/10/18 08:08:39;;;;;;;81.97;41.50;;;16.10;99.90;;;;;;5058525;28;20108;-67
2022/10/18 08:11:09;;;;;;;83.68;40.47;;;15.90;99.90;;;;;;5058408;28;20040;-66
2022/10/18 08:13:35;;;;;;;80.60;41.47;;;15.90;99.90;;;;;;5060423;28;20064;-67
2022/10/18 08:16:27;;;;;;;87.10;43.35;;;15.80;99.90;;;;;;5059522;28;20074;-67
2022/10/18 08:18:56;;;;;;;84.32;42.92;;;15.60;99.90;;;;;;5051293;28;20033;-66
2022/10/18 08:21:22;;;;;;;86.57;42.83;;;15.60;99.90;;;;;;5060678;28;20203;-66
2022/10/18 08:23:48;;;;;;;86.15;43.88;;;15.60;99.90;;;;;;5057698;28;20482;-67
2022/10/18 08:26:17;;;;;;;90.88;45.85;;;15.60;99.90;;;;;;5058451;28;20041;-66
2022/10/18 08:28:43;;;;;;;101.72;50.20;;;15.60;99.90;;;;;;5059212;28;20032;-66
2022/10/18 08:31:16;;;;;;;98.88;46.40;;;15.70;99.90;;;;;;5055881;28;20357;-66
2022/10/18 08:33:42;;;;;;;94.20;46.17;;;15.60;99.90;;;;;;5058935;28;20035;-66
2022/10/18 08:36:11;;;;;;;95.97;46.17;;;15.40;99.90;;;;;;5059289;28;20179;-66
2022/10/18 08:38:39;;;;;;;109.32;45.67;;;15.40;99.90;;;;;;5056471;28;20466;-66
2022/10/18 08:41:32;;;;;;;112.20;47.97;;;15.50;99.90;;;;;;5059824;28;20036;-66
2022/10/18 08:44:13;;;;;;;93.22;43.35;;;15.50;99.90;;;;;;5056704;28;20035;-66
2022/10/18 08:46:43;;;;;;;100.90;46.13;;;15.40;99.90;;;;;;5058832;28;20028;-66
2022/10/18 08:49:25;;;;;;;99.82;44.58;;;15.50;99.90;;;;;;5058995;28;20025;-67
2022/10/18 08:51:52;;;;;;;99.05;44.03;;;15.50;99.90;;;;;;5059152;28;20054;-66
2022/10/18 08:54:30;;;;;;;104.55;46.30;;;15.40;99.90;;;;;;5056298;28;20032;-65
2022/10/18 08:56:59;;;;;;;110.05;46.08;;;15.30;99.90;;;;;;5053444;28;20029;-65
2022/10/18 08:59:27;;;;;;;108.53;45.95;;;15.40;99.90;;;;;;5059704;28;20044;-66
2022/10/18 09:02:19;;;;;;;112.50;47.40;;;15.40;99.90;;;;;;5044915;28;20045;-67
2022/10/18 09:04:57;;;;;;;122.63;49.03;;;15.60;99.90;;;;;;5058870;28;20403;-66
2022/10/18 09:07:53;;;;;;;120.85;48.88;;;15.60;99.90;;;;;;5042335;28;20090;-66
2022/10/18 09:10:42;;;;;;;123.45;51.33;;;15.70;99.90;;;;;;5052345;28;20663;-65
2022/10/18 09:13:13;;;;;;;116.35;48.63;;;15.70;99.90;;;;;;5057410;28;20036;-66
2022/10/18 09:15:49;;;;;;;123.63;50.75;;;15.70;99.90;;;;;;5052260;28;20041;-65
2022/10/18 09:18:26;;;;;;;118.88;51.33;;;15.80;99.90;;;;;;5057139;28;20128;-66
2022/10/18 09:20:56;;;;;;;126.75;53.28;;;15.90;99.90;;;;;;5059946;28;20623;-65
2022/10/18 09:23:39;;;;;;;124.90;52.35;;;15.90;99.90;;;;;;5057515;28;20448;-66
2022/10/18 09:26:13;;;;;;;129.40;52.97;;;16.00;99.90;;;;;;5059137;28;20510;-66
2022/10/18 09:28:51;;;;;;;131.30;51.67;;;16.20;99.90;;;;;;5059097;28;20107;-65
2022/10/18 09:31:55;;;;;;;135.73;51.35;;;16.00;99.90;;;;;;5060343;28;20033;-66
2022/10/18 09:34:29;;;;;;;118.93;48.03;;;16.10;99.90;;;;;;5029373;28;20032;-66
2022/10/18 09:36:55;;;;;;;109.00;47.03;;;15.90;99.90;;;;;;5033985;28;20090;-66
2022/10/18 09:39:27;;;;;;;107.30;45.03;;;16.00;99.90;;;;;;5058738;28;20032;-65
2022/10/18 09:41:58;;;;;;;95.93;42.55;;;16.00;99.90;;;;;;5049693;28;20500;-65
2022/10/18 09:44:37;;;;;;;94.75;42.38;;;16.20;99.90;;;;;;5056362;28;20552;-66
2022/10/18 09:47:15;;;;;;;93.15;40.13;;;16.10;99.90;;;;;;5059456;28;20117;-66
2022/10/18 09:49:47;;;;;;;88.45;39.83;;;16.30;99.90;;;;;;5060391;28;20043;-65
2022/10/18 09:52:37;;;;;;;87.97;40.45;;;16.40;99.90;;;;;;5057179;28;20032;-65
2022/10/18 09:55:13;;;;;;;87.00;40.15;;;16.30;99.90;;;;;;5060903;28;20079;-65
2022/10/18 09:57:43;;;;;;;79.07;38.50;;;16.10;99.90;;;;;;5057318;28;20035;-64
2022/10/18 10:00:24;;;;;;;78.63;38.40;;;16.10;99.90;;;;;;5059916;28;20491;-65
2022/10/18 10:02:50;;;;;;;72.68;37.22;;;16.10;99.90;;;;;;5059697;28;20328;-67
2022/10/18 10:05:15;;;;;;;68.43;35.17;;;16.00;99.90;;;;;;5060618;28;20043;-66
2022/10/18 10:07:44;;;;;;;73.40;35.85;;;16.00;99.90;;;;;;5037832;28;20047;-65
2022/10/18 10:10:25;;;;;;;73.43;36.42;;;16.40;99.90;;;;;;5050872;28;20029;-66
2022/10/18 10:13:14;;;;;;;66.57;36.15;;;16.30;99.90;;;;;;5054099;28;20058;-66
2022/10/18 10:15:50;;;;;;;66.18;36.45;;;16.40;99.90;;;;;;5052853;28;20032;-65
2022/10/18 10:18:21;;;;;;;68.93;35.58;;;16.60;99.90;;;;;;5051667;28;20113;-65
2022/10/18 10:20:54;;;;;;;64.25;34.88;;;16.90;99.90;;;;;;5056735;28;20111;-64
2022/10/18 10:23:42;;;;;;;63.33;33.70;;;16.70;99.90;;;;;;5056581;28;20037;-65
2022/10/18 10:26:23;;;;;;;53.05;30.05;;;16.70;99.90;;;;;;5059828;28;20931;-65
2022/10/18 10:28:50;;;;;;;54.20;30.75;;;16.50;99.90;;;;;;5055078;28;20028;-65
2022/10/18 10:31:27;;;;;;;53.63;29.10;;;16.50;99.90;;;;;;5054125;28;20025;-65
2022/10/18 10:34:18;;;;;;;55.45;29.92;;;16.50;99.90;;;;;;5058302;28;20070;-65
2022/10/18 10:36:52;;;;;;;46.30;25.08;;;16.70;99.90;;;;;;5052925;28;20045;-67
2022/10/18 10:39:20;;;;;;;49.45;27.27;;;16.60;99.90;;;;;;5053872;28;20060;-65
2022/10/18 10:41:50;;;;;;;55.83;28.85;;;16.40;99.90;;;;;;5053570;28;20363;-66
2022/10/18 10:44:19;;;;;;;55.92;28.38;;;16.80;99.90;;;;;;5051345;28;20126;-65
2022/10/18 10:46:48;;;;;;;52.25;27.92;;;17.00;99.90;;;;;;5056733;28;20218;-64
2022/10/18 10:49:44;;;;;;;40.00;24.00;;;16.80;99.90;;;;;;5060791;28;20465;-65
2022/10/18 10:52:23;;;;;;;40.60;22.63;;;16.80;99.90;;;;;;5056568;28;20032;-66
2022/10/18 10:54:48;;;;;;;39.05;21.73;;;17.00;99.90;;;;;;5054275;28;20147;-65
2022/10/18 10:57:15;;;;;;;38.03;22.73;;;17.00;99.90;;;;;;5038773;28;20107;-65
2022/10/18 10:59:50;;;;;;;38.58;23.20;;;17.10;99.90;;;;;;5052602;28;20032;-66
2022/10/18 11:02:33;;;;;;;41.03;22.52;;;17.20;99.90;;;;;;5036368;28;20082;-65
2022/10/18 11:05:22;;;;;;;35.35;20.75;;;17.40;99.90;;;;;;5052053;28;20563;-66
2022/10/18 11:07:55;;;;;;;36.33;21.02;;;17.50;99.90;;;;;;5059440;28;20377;-66
2022/10/18 11:10:25;;;;;;;30.25;20.85;;;17.20;99.90;;;;;;5056718;28;20071;-64
2022/10/18 11:13:03;;;;;;;31.08;19.50;;;17.10;99.90;;;;;;5060039;28;20035;-65
2022/10/18 11:15:35;;;;;;;29.70;19.00;;;17.10;99.90;;;;;;5055433;28;20709;-65
2022/10/18 11:18:16;;;;;;;31.85;19.05;;;17.10;99.90;;;;;;5039150;28;20480;-65
2022/10/18 11:20:50;;;;;;;33.40;19.02;;;17.10;99.90;;;;;;5060025;28;20044;-65
2022/10/18 11:23:17;;;;;;;32.35;19.75;;;16.80;99.90;;;;;;5064583;28;20119;-66
2022/10/18 11:25:58;;;;;;;29.85;19.38;;;17.10;99.90;;;;;;5075353;28;20420;-65
2022/10/18 11:29:00;;;;;;;30.00;18.23;;;17.20;99.90;;;;;;5079034;28;20113;-66
2022/10/18 11:31:47;;;;;;;31.90;17.35;;;17.50;99.90;;;;;;5056976;28;20036;-65
2022/10/18 11:34:20;;;;;;;32.28;17.05;;;17.50;99.90;;;;;;5061616;28;20037;-65
2022/10/18 11:37:06;;;;;;;25.45;16.10;;;17.30;99.90;;;;;;5064107;28;20028;-66
2022/10/18 11:39:50;;;;;;;27.98;16.00;;;17.40;99.90;;;;;;5081457;28;20024;-65
2022/10/18 11:42:37;;;;;;;27.85;15.98;;;17.20;99.90;;;;;;5081139;28;20044;-66
2022/10/18 11:45:02;;;;;;;29.10;14.65;;;17.20;99.90;;;;;;5080813;28;20048;-64
2022/10/18 11:47:51;;;;;;;27.48;15.02;;;17.10;99.90;;;;;;5081585;28;20486;-65
2022/10/18 11:50:44;;;;;;;26.58;16.08;;;17.20;99.90;;;;;;5082594;28;20135;-65
2022/10/18 11:53:16;;;;;;;27.77;16.13;;;17.40;99.90;;;;;;5077477;28;20046;-66
2022/10/18 11:55:58;;;;;;;30.25;16.13;;;17.40;99.90;;;;;;5081192;28;21178;-64
2022/10/18 11:58:49;;;;;;;30.88;17.35;;;17.00;99.90;;;;;;5079124;28;20126;-64
2022/10/18 12:01:50;;;;;;;28.30;16.50;;;17.20;99.90;;;;;;5074369;28;20029;-65
2022/10/18 12:04:35;;;;;;;26.58;15.00;;;17.20;99.90;;;;;;5061849;28;20032;-65
2022/10/18 12:07:04;;;;;;;27.45;15.60;;;17.10;99.90;;;;;;5080395;28;20436;-64
2022/10/18 12:09:35;;;;;;;27.23;14.00;;;17.00;99.90;;;;;;5075550;28;20043;-65
2022/10/18 12:12:14;;;;;;;24.98;13.25;;;17.20;99.90;;;;;;5079241;28;20464;-66
2022/10/18 12:14:48;;;;;;;21.95;13.65;;;17.30;99.90;;;;;;5078839;28;20340;-64
2022/10/18 12:17:30;;;;;;;24.23;11.93;;;17.40;99.90;;;;;;5065771;28;20048;-65
2022/10/18 12:20:05;;;;;;;22.67;11.20;;;17.20;99.90;;;;;;5079287;28;20844;-64
2022/10/18 12:22:41;;;;;;;22.40;11.77;;;17.30;99.90;;;;;;5082861;28;20035;-66
2022/10/18 12:25:15;;;;;;;21.48;11.18;;;17.60;99.90;;;;;;5081942;28;20044;-65
2022/10/18 12:27:50;;;;;;;21.52;11.07;;;17.60;99.90;;;;;;5082759;28;20382;-64
2022/10/18 12:30:41;;;;;;;29.45;12.98;;;17.70;99.90;;;;;;5081266;28;20500;-65
2022/10/18 12:33:15;;;;;;;30.55;13.50;;;17.90;99.90;;;;;;5078542;28;20444;-64
2022/10/18 12:35:59;;;;;;;24.48;13.50;;;17.90;99.90;;;;;;5079020;28;20432;-64
2022/10/18 12:38:30;;;;;;;26.52;12.80;;;17.90;99.90;;;;;;5079254;28;20491;-63
2022/10/18 12:40:57;;;;;;;33.10;14.27;;;;;;;;;;5083057;28;20040;-65
2022/10/18 12:43:26;;;;;;;30.40;13.88;;;18.00;99.90;;;;;;5080123;28;20419;-65
2022/10/18 12:45:57;;;;;;;25.02;12.05;;;18.00;99.90;;;;;;5082255;28;20040;-65
2022/10/18 12:48:32;;;;;;;29.83;11.43;;;18.10;99.90;;;;;;5079654;28;20635;-65
2022/10/18 12:51:12;;;;;;;26.45;11.50;;;17.90;99.90;;;;;;5080180;28;20518;-65